Time;durP1;ratioP1;P1;durP2;ratioP2;P2;SDS_P1;SDS_P2;PMS_P1;PMS_P2;Temp;Humidity;BMP_temperature;BMP_pressure;BME280_temperature;BME280_humidity;BME280_pressure;Samples;Min_cycle;Max_cycle;Signal;HPM_P1;HPM_P2
2022/01/26 00:07:03;;;;;;;91.63;33.22;;;3.50;99.90;;;;;;4978317;28;20059;-69
2022/01/26 00:09:28;;;;;;;105.55;34.70;;;3.50;99.90;;;;;;4978759;28;20115;-69
2022/01/26 00:11:55;;;;;;;103.47;35.33;;;3.50;99.90;;;;;;4990294;28;20353;-69
2022/01/26 00:14:20;;;;;;;104.05;33.80;;;3.50;99.90;;;;;;4976164;28;20055;-68
2022/01/26 00:16:46;;;;;;;103.30;35.33;;;3.50;99.90;;;;;;4959394;28;20436;-68
2022/01/26 00:19:19;;;;;;;93.75;35.45;;;3.50;99.90;;;;;;4975997;28;20086;-69
2022/01/26 00:21:49;;;;;;;93.20;32.20;;;3.50;99.90;;;;;;4959291;28;20086;-72
2022/01/26 00:24:37;;;;;;;99.28;35.10;;;3.50;99.90;;;;;;4976122;28;20051;-69
2022/01/26 00:29:33;;;;;;;102.68;34.65;;;3.50;99.90;;;;;;4976329;28;20379;-69
2022/01/26 00:43:00;;;;;;;104.13;35.60;;;3.50;99.90;;;;;;4987381;28;20055;-69
2022/01/26 00:45:33;;;;;;;98.43;33.65;;;3.40;99.90;;;;;;4995626;28;20142;-72
2022/01/26 00:48:02;;;;;;;98.07;33.80;;;3.40;99.90;;;;;;4995257;28;20047;-70
2022/01/26 00:50:28;;;;;;;102.90;35.17;;;3.50;99.90;;;;;;4995547;28;20038;-70
2022/01/26 00:52:55;;;;;;;103.65;33.08;;;3.50;99.90;;;;;;4995222;28;20363;-69
2022/01/26 00:55:21;;;;;;;90.55;33.28;;;3.50;99.90;;;;;;4996457;28;20125;-70
2022/01/26 00:57:47;;;;;;;93.65;34.80;;;3.40;99.90;;;;;;4962461;28;20082;-70
2022/01/26 01:00:17;;;;;;;105.15;35.30;;;3.50;99.90;;;;;;4979559;28;20460;-69
2022/01/26 01:02:43;;;;;;;99.82;34.55;;;3.50;99.90;;;;;;4946676;28;20415;-68
2022/01/26 01:05:18;;;;;;;100.68;36.38;;;3.50;99.90;;;;;;4979673;28;20097;-69
2022/01/26 01:07:45;;;;;;;101.20;33.67;;;3.40;99.90;;;;;;4979842;28;20082;-69
2022/01/26 01:10:12;;;;;;;98.68;33.72;;;3.40;99.90;;;;;;4963042;28;20131;-69
2022/01/26 01:12:42;;;;;;;111.53;35.78;;;3.40;99.90;;;;;;4992127;28;20378;-68
2022/01/26 01:15:08;;;;;;;105.53;33.75;;;3.50;99.90;;;;;;4999093;28;20454;-70
2022/01/26 01:17:40;;;;;;;97.65;35.03;;;3.40;99.90;;;;;;4998775;28;20046;-68
2022/01/26 01:20:19;;;;;;;102.95;35.85;;;3.40;99.90;;;;;;4975175;28;20491;-70
2022/01/26 01:28:20;;;;;;;96.97;33.03;;;3.40;99.90;;;;;;4978984;28;20502;-70
2022/01/26 01:30:50;;;;;;;109.65;36.40;;;3.40;99.90;;;;;;4978874;28;20046;-69
2022/01/26 01:33:22;;;;;;;111.47;36.45;;;3.40;99.90;;;;;;4961894;28;20104;-69
2022/01/26 01:35:49;;;;;;;110.05;35.47;;;3.40;99.90;;;;;;4978717;28;20055;-69
2022/01/26 01:38:17;;;;;;;106.90;37.50;;;3.40;99.90;;;;;;4961989;28;20050;-69
2022/01/26 01:40:46;;;;;;;94.90;34.25;;;3.30;99.90;;;;;;4945897;28;20051;-68
2022/01/26 01:43:15;;;;;;;102.80;36.63;;;3.40;99.90;;;;;;4978405;28;20121;-69
2022/01/26 01:45:46;;;;;;;105.07;36.97;;;3.40;99.90;;;;;;4981013;28;20053;-69
2022/01/26 01:48:16;;;;;;;110.50;37.30;;;3.40;99.90;;;;;;4998562;28;20057;-69
2022/01/26 01:50:42;;;;;;;102.93;36.20;;;3.40;99.90;;;;;;4981294;28;20085;-70
2022/01/26 01:53:13;;;;;;;104.30;36.25;;;3.30;99.90;;;;;;4998093;28;20096;-69
2022/01/26 01:55:40;;;;;;;116.75;38.50;;;3.30;99.90;;;;;;4980643;28;20054;-69
2022/01/26 01:58:07;;;;;;;113.20;38.90;;;3.30;99.90;;;;;;4998239;28;20062;-71
2022/01/26 02:00:34;;;;;;;115.60;39.17;;;3.30;99.90;;;;;;4997766;28;20132;-70
2022/01/26 02:03:00;;;;;;;113.05;37.85;;;3.30;99.90;;;;;;4980962;28;20475;-70
2022/01/26 02:05:26;;;;;;;107.55;36.55;;;3.30;99.90;;;;;;4981155;28;20046;-70
2022/01/26 02:07:52;;;;;;;118.15;39.65;;;3.30;99.90;;;;;;4996938;28;20041;-70
2022/01/26 02:10:18;;;;;;;106.57;37.65;;;3.30;99.90;;;;;;4997535;28;20046;-69
2022/01/26 02:12:48;;;;;;;106.80;38.17;;;3.30;99.90;;;;;;4992102;28;20079;-69
2022/01/26 02:15:22;;;;;;;117.30;38.60;;;3.30;99.90;;;;;;4997571;28;20379;-70
2022/01/26 02:56:02;;;;;;;121.57;37.95;;;3.20;99.90;;;;;;4955640;28;20054;-69
2022/01/26 03:03:41;;;;;;;98.60;35.60;;;3.20;99.90;;;;;;4979811;28;20050;-70
2022/01/26 03:06:12;;;;;;;104.90;34.75;;;3.20;99.90;;;;;;4979707;28;20042;-69
2022/01/26 03:08:43;;;;;;;105.28;34.67;;;3.20;99.90;;;;;;4979005;28;20470;-69
2022/01/26 03:11:12;;;;;;;112.38;35.35;;;3.20;99.90;;;;;;4979497;28;20076;-70
2022/01/26 03:13:44;;;;;;;100.25;34.65;;;3.20;99.90;;;;;;4996803;28;20057;-71
2022/01/26 03:16:16;;;;;;;109.27;34.63;;;3.20;99.90;;;;;;4996930;28;20042;-69
2022/01/26 03:19:03;;;;;;;92.85;34.83;;;3.20;99.90;;;;;;4996460;28;20050;-71
2022/01/26 03:21:42;;;;;;;96.65;34.50;;;3.20;99.90;;;;;;4996705;28;20054;-70
2022/01/26 03:34:34;;;;;;;95.13;34.27;;;3.20;99.90;;;;;;4996093;28;20046;-69
2022/01/26 03:37:06;;;;;;;105.72;35.97;;;3.20;99.90;;;;;;4979496;28;20054;-69
2022/01/26 03:39:42;;;;;;;101.30;35.50;;;3.20;99.90;;;;;;4979234;28;20104;-69
2022/01/26 03:42:13;;;;;;;105.97;36.08;;;3.30;99.90;;;;;;4978786;28;20081;-70
2022/01/26 03:44:39;;;;;;;97.13;34.08;;;3.20;99.90;;;;;;4995445;28;20046;-69
2022/01/26 03:47:06;;;;;;;104.22;34.45;;;3.20;99.90;;;;;;4995884;28;20049;-69
2022/01/26 03:49:31;;;;;;;107.57;36.75;;;3.20;99.90;;;;;;4978929;28;20054;-70
2022/01/26 03:51:57;;;;;;;104.78;34.25;;;3.20;99.90;;;;;;4978669;28;20061;-70
2022/01/26 03:54:23;;;;;;;106.20;36.25;;;3.20;99.90;;;;;;4995794;28;20042;-69
2022/01/26 03:56:49;;;;;;;117.80;36.30;;;3.20;99.90;;;;;;4978683;28;20061;-69
2022/01/26 03:59:14;;;;;;;104.43;35.00;;;3.20;99.90;;;;;;4978543;28;20423;-68
2022/01/26 04:01:40;;;;;;;100.28;33.15;;;3.10;99.90;;;;;;4995730;28;20046;-69
2022/01/26 04:04:07;;;;;;;103.28;35.15;;;3.10;99.90;;;;;;4996124;28;20440;-71
2022/01/26 04:06:33;;;;;;;108.68;36.80;;;3.20;99.90;;;;;;4996111;28;20339;-69
2022/01/26 04:09:00;;;;;;;103.25;34.25;;;3.20;99.90;;;;;;4995578;28;20089;-69
2022/01/26 04:11:34;;;;;;;101.13;33.70;;;3.20;99.90;;;;;;4994886;28;20084;-69
2022/01/26 04:14:04;;;;;;;104.88;36.38;;;3.10;99.90;;;;;;4978812;28;20455;-68
2022/01/26 04:16:29;;;;;;;100.95;34.58;;;3.10;99.90;;;;;;4997793;28;20050;-68
2022/01/26 04:18:56;;;;;;;98.78;34.42;;;3.10;99.90;;;;;;4995945;28;20104;-69
2022/01/26 04:24:18;;;;;;;101.15;34.45;;;3.10;99.90;;;;;;4995411;28;20105;-70
2022/01/26 04:26:59;;;;;;;104.20;33.58;;;3.10;99.90;;;;;;4978941;28;20046;-68
2022/01/26 04:29:28;;;;;;;96.43;32.78;;;3.10;99.90;;;;;;4996168;28;20046;-70
2022/01/26 04:31:55;;;;;;;93.35;32.55;;;3.10;99.90;;;;;;4999403;28;20089;-68
2022/01/26 04:34:22;;;;;;;95.35;33.78;;;3.10;99.90;;;;;;4981723;28;20050;-70
2022/01/26 04:36:54;;;;;;;100.22;33.25;;;3.10;99.90;;;;;;4999431;28;20133;-69
2022/01/26 04:39:26;;;;;;;107.75;34.42;;;3.10;99.90;;;;;;4982511;28;20111;-69
2022/01/26 04:41:56;;;;;;;99.72;33.92;;;3.10;99.90;;;;;;4969549;28;20046;-70
2022/01/26 04:44:29;;;;;;;89.40;33.22;;;3.10;99.90;;;;;;4979677;28;20066;-68
2022/01/26 04:46:55;;;;;;;94.57;32.17;;;3.10;99.90;;;;;;4980253;28;20112;-68
2022/01/26 04:49:21;;;;;;;93.05;33.22;;;3.10;99.90;;;;;;4979725;28;20153;-68
2022/01/26 04:51:47;;;;;;;94.78;31.88;;;3.00;99.90;;;;;;4979775;28;20049;-69
2022/01/26 04:54:14;;;;;;;99.05;33.45;;;3.20;99.90;;;;;;4962737;28;20073;-70
2022/01/26 04:56:39;;;;;;;101.20;34.70;;;3.00;99.90;;;;;;4979605;28;20054;-71
2022/01/26 04:59:05;;;;;;;96.50;34.33;;;3.00;99.90;;;;;;4980105;28;20042;-68
2022/01/26 05:01:31;;;;;;;92.45;32.90;;;3.00;99.90;;;;;;4946771;28;20348;-69
2022/01/26 05:03:56;;;;;;;97.47;33.40;;;3.00;99.90;;;;;;4979661;28;20035;-69
2022/01/26 05:06:22;;;;;;;85.90;32.60;;;3.00;99.90;;;;;;4978798;28;20057;-69
2022/01/26 05:08:47;;;;;;;97.28;34.30;;;3.00;99.90;;;;;;4962581;28;20046;-70
2022/01/26 05:11:19;;;;;;;96.68;33.78;;;3.00;99.90;;;;;;4988824;28;20066;-70
2022/01/26 05:13:45;;;;;;;88.18;32.05;;;3.00;99.90;;;;;;4981438;28;20050;-69
2022/01/26 05:16:11;;;;;;;93.85;31.67;;;3.00;99.90;;;;;;4998267;28;20105;-68
2022/01/26 05:18:37;;;;;;;85.93;31.60;;;3.00;99.90;;;;;;4981659;28;20054;-69
2022/01/26 05:21:03;;;;;;;91.70;31.00;;;3.00;99.90;;;;;;4981430;28;20046;-69
2022/01/26 05:23:28;;;;;;;89.47;34.20;;;3.00;99.90;;;;;;4998830;28;20067;-69
2022/01/26 05:25:55;;;;;;;94.80;31.90;;;3.00;99.90;;;;;;4981448;28;20360;-69
2022/01/26 05:28:20;;;;;;;79.45;31.08;;;3.00;99.90;;;;;;4981297;28;20058;-68
2022/01/26 05:30:46;;;;;;;93.53;34.13;;;2.90;99.90;;;;;;4997659;28;20053;-68
2022/01/26 05:33:12;;;;;;;91.82;32.65;;;2.90;99.90;;;;;;5017929;28;20049;-70
2022/01/26 05:35:37;;;;;;;87.72;31.88;;;3.00;99.90;;;;;;5017905;28;20054;-69
2022/01/26 05:38:03;;;;;;;89.47;32.10;;;3.00;99.90;;;;;;5002999;28;20057;-69
2022/01/26 05:40:28;;;;;;;82.63;30.95;;;2.90;99.90;;;;;;4980243;28;20070;-69
2022/01/26 05:42:54;;;;;;;86.28;31.17;;;2.90;99.90;;;;;;4977942;28;20122;-69
2022/01/26 05:45:29;;;;;;;88.20;31.15;;;3.00;99.90;;;;;;4978777;28;20451;-69
2022/01/26 05:47:55;;;;;;;86.63;30.73;;;3.00;99.90;;;;;;4978747;28;20101;-69
2022/01/26 05:50:21;;;;;;;84.20;29.48;;;3.00;99.90;;;;;;4978841;28;20437;-70
2022/01/26 05:52:47;;;;;;;83.70;30.63;;;2.90;99.90;;;;;;4978731;28;20069;-70
2022/01/26 05:55:13;;;;;;;83.90;30.15;;;3.00;99.90;;;;;;4961525;28;20051;-66
2022/01/26 05:57:39;;;;;;;82.18;30.10;;;2.90;99.90;;;;;;4978287;28;20058;-68
2022/01/26 06:00:05;;;;;;;79.90;31.20;;;2.90;99.90;;;;;;4978418;28;20039;-68
2022/01/26 06:02:32;;;;;;;83.50;29.60;;;2.90;99.90;;;;;;4961391;28;20047;-71
2022/01/26 06:04:58;;;;;;;78.07;29.83;;;3.30;99.90;;;;;;4978792;28;20046;-69
2022/01/26 06:07:24;;;;;;;84.25;31.65;;;3.00;99.90;;;;;;4969186;28;20046;-69
2022/01/26 06:09:49;;;;;;;87.32;29.27;;;2.90;99.90;;;;;;4997784;28;20432;-70
2022/01/26 06:12:15;;;;;;;70.22;27.17;;;2.90;99.90;;;;;;4980322;28;20116;-69
2022/01/26 06:14:40;;;;;;;76.45;29.05;;;3.00;99.90;;;;;;4981031;28;20115;-70
2022/01/26 06:17:07;;;;;;;70.72;27.85;;;3.00;99.90;;;;;;4997625;28;20101;-70
2022/01/26 06:19:33;;;;;;;73.82;27.17;;;2.90;99.90;;;;;;4997356;28;20085;-71
2022/01/26 06:21:58;;;;;;;73.88;28.00;;;3.00;99.90;;;;;;4980183;28;20497;-71
2022/01/26 06:24:24;;;;;;;77.63;28.83;;;2.90;99.90;;;;;;4997560;28;20351;-70
2022/01/26 06:26:49;;;;;;;74.57;28.60;;;3.00;99.90;;;;;;4980269;28;20077;-69
2022/01/26 06:29:15;;;;;;;69.68;27.67;;;2.90;99.90;;;;;;4981094;28;20459;-70
2022/01/26 06:31:42;;;;;;;72.38;27.52;;;2.90;99.90;;;;;;4978774;28;20042;-69
2022/01/26 06:34:11;;;;;;;70.72;26.92;;;2.90;99.90;;;;;;4987217;28;20109;-69
2022/01/26 06:36:43;;;;;;;70.47;27.52;;;3.00;99.90;;;;;;4973293;28;20062;-71
2022/01/26 06:39:10;;;;;;;78.97;28.52;;;3.00;99.90;;;;;;4986081;28;20058;-69
2022/01/26 06:41:36;;;;;;;74.85;28.45;;;2.90;99.90;;;;;;4971768;28;20051;-70
2022/01/26 06:44:12;;;;;;;75.55;26.92;;;3.00;99.90;;;;;;4980461;28;20490;-69
2022/01/26 06:46:51;;;;;;;68.95;29.02;;;2.90;99.90;;;;;;4995603;28;20053;-70
2022/01/26 06:51:49;;;;;;;74.32;27.80;;;3.00;99.90;;;;;;4982029;28;20059;-70
2022/01/26 06:54:14;;;;;;;80.47;28.40;;;3.00;99.90;;;;;;4977207;28;20047;-70
2022/01/26 06:56:40;;;;;;;77.07;28.70;;;2.90;99.90;;;;;;4969938;28;20061;-70
2022/01/26 06:59:06;;;;;;;74.55;28.10;;;2.90;99.90;;;;;;4967094;28;20374;-71
2022/01/26 07:01:31;;;;;;;69.15;27.95;;;2.90;99.90;;;;;;4976839;28;20046;-70
2022/01/26 07:03:57;;;;;;;71.60;28.20;;;2.90;99.90;;;;;;4959940;28;20051;-70
2022/01/26 07:06:22;;;;;;;78.32;28.40;;;2.90;99.90;;;;;;4979221;28;20133;-71
2022/01/26 07:08:48;;;;;;;74.90;28.40;;;2.90;99.90;;;;;;4978008;28;20125;-69
2022/01/26 07:11:13;;;;;;;72.93;28.25;;;2.90;99.90;;;;;;4994764;28;20046;-70
2022/01/26 07:13:40;;;;;;;78.45;29.23;;;2.90;99.90;;;;;;4978950;28;20042;-71
2022/01/26 07:21:34;;;;;;;74.75;29.23;;;2.90;99.90;;;;;;4994838;28;20113;-70
2022/01/26 07:24:00;;;;;;;75.53;29.23;;;2.90;99.90;;;;;;4979220;28;20402;-70
2022/01/26 07:26:30;;;;;;;71.85;27.83;;;2.90;99.90;;;;;;4996698;28;20081;-69
2022/01/26 07:29:08;;;;;;;76.95;28.80;;;2.90;99.90;;;;;;4993698;28;20097;-70
2022/01/26 07:31:36;;;;;;;88.85;31.05;;;2.90;99.90;;;;;;4980647;28;20077;-68
2022/01/26 07:34:01;;;;;;;86.30;30.38;;;3.00;99.90;;;;;;4961620;28;20047;-69
2022/01/26 07:36:27;;;;;;;83.57;31.38;;;3.00;99.90;;;;;;4990492;28;20046;-69
2022/01/26 07:38:55;;;;;;;83.70;30.73;;;3.00;99.90;;;;;;4996022;28;20054;-69
2022/01/26 07:41:21;;;;;;;84.53;31.55;;;2.90;99.90;;;;;;4995742;28;20465;-70
2022/01/26 07:43:46;;;;;;;90.88;33.70;;;3.00;99.90;;;;;;4975909;28;20056;-69
2022/01/26 07:46:13;;;;;;;84.28;30.27;;;2.90;99.90;;;;;;4979674;28;20128;-68
2022/01/26 07:48:39;;;;;;;92.22;31.92;;;3.00;99.90;;;;;;4988767;28;20069;-70
2022/01/26 07:51:05;;;;;;;85.75;32.97;;;3.20;99.90;;;;;;4995262;28;20049;-69
2022/01/26 07:53:32;;;;;;;87.47;33.50;;;3.00;99.90;;;;;;4976665;28;20129;-68
2022/01/26 07:55:58;;;;;;;86.22;33.78;;;3.00;99.90;;;;;;4977457;28;20042;-70
2022/01/26 07:58:25;;;;;;;89.55;35.30;;;3.00;99.90;;;;;;4989245;28;20184;-69
2022/01/26 08:00:50;;;;;;;91.45;35.40;;;3.00;99.90;;;;;;4979944;28;20057;-70
2022/01/26 08:03:17;;;;;;;99.13;35.60;;;3.00;99.90;;;;;;4988770;28;20042;-68
2022/01/26 08:05:43;;;;;;;99.35;38.08;;;3.00;99.90;;;;;;4968729;28;20058;-70
2022/01/26 08:08:09;;;;;;;91.28;35.85;;;3.10;99.90;;;;;;4993880;28;20054;-70
2022/01/26 08:10:34;;;;;;;101.22;38.90;;;3.00;99.90;;;;;;4987882;28;20051;-68
2022/01/26 08:13:00;;;;;;;104.22;38.60;;;3.00;99.90;;;;;;4993137;28;20046;-68
2022/01/26 08:15:26;;;;;;;95.82;38.50;;;3.10;99.90;;;;;;4977884;28;20050;-70
2022/01/26 08:17:53;;;;;;;97.60;39.00;;;3.10;99.90;;;;;;4994875;28;20050;-70
2022/01/26 08:20:20;;;;;;;102.88;38.78;;;3.00;99.90;;;;;;4995183;28;20069;-69
2022/01/26 08:22:46;;;;;;;105.88;40.75;;;3.00;99.90;;;;;;4995050;28;20046;-68
2022/01/26 08:25:12;;;;;;;98.75;40.53;;;3.10;99.90;;;;;;4977993;28;20145;-69
2022/01/26 08:27:42;;;;;;;101.30;37.72;;;3.10;99.90;;;;;;4980968;28;20046;-68
2022/01/26 08:30:12;;;;;;;110.38;41.42;;;3.10;99.90;;;;;;4979922;28;20047;-69
2022/01/26 08:32:38;;;;;;;105.53;40.70;;;3.10;99.90;;;;;;4985700;28;20105;-70
2022/01/26 08:35:04;;;;;;;107.22;41.83;;;3.10;99.90;;;;;;4977701;28;20133;-70
2022/01/26 08:37:29;;;;;;;116.18;43.83;;;3.10;99.90;;;;;;4993323;28;20054;-68
2022/01/26 08:39:55;;;;;;;98.25;40.65;;;3.20;99.90;;;;;;4985723;28;20050;-70
2022/01/26 08:42:21;;;;;;;113.10;41.28;;;3.20;99.90;;;;;;4994522;28;20386;-69
2022/01/26 08:44:47;;;;;;;111.88;41.88;;;3.20;99.90;;;;;;4975908;28;20051;-70
2022/01/26 08:47:12;;;;;;;119.13;45.00;;;3.20;99.90;;;;;;4958882;28;20136;-70
2022/01/26 08:49:38;;;;;;;125.93;44.85;;;3.20;99.90;;;;;;4989725;28;20042;-70
2022/01/26 08:52:04;;;;;;;122.68;46.58;;;3.30;99.90;;;;;;4994534;28;20064;-70
2022/01/26 08:54:29;;;;;;;119.03;44.40;;;3.30;99.90;;;;;;4976798;28;20127;-70
2022/01/26 08:56:55;;;;;;;129.50;47.90;;;3.30;99.90;;;;;;4970289;28;20463;-70
2022/01/26 08:59:23;;;;;;;121.32;47.05;;;3.30;99.90;;;;;;4994382;28;20061;-70
2022/01/26 09:01:49;;;;;;;124.68;47.00;;;3.30;99.90;;;;;;4994943;28;20054;-71
2022/01/26 09:04:15;;;;;;;117.95;46.20;;;3.40;99.90;;;;;;4994313;28;20406;-71
2022/01/26 09:07:00;;;;;;;130.27;48.42;;;3.40;99.90;;;;;;4985437;28;20035;-69
2022/01/26 09:09:29;;;;;;;122.47;48.08;;;3.40;99.90;;;;;;4974531;28;20050;-69
2022/01/26 09:11:58;;;;;;;126.20;47.55;;;3.50;99.90;;;;;;4996006;28;20058;-69
2022/01/26 09:14:28;;;;;;;122.20;46.72;;;3.50;99.90;;;;;;4958510;28;20042;-69
2022/01/26 09:16:55;;;;;;;127.18;47.13;;;3.50;99.90;;;;;;4973945;28;20050;-69
2022/01/26 09:21:50;;;;;;;127.25;48.15;;;3.60;99.90;;;;;;4999111;28;20126;-68
2022/01/26 09:24:16;;;;;;;118.22;47.15;;;3.60;99.90;;;;;;4998268;28;20129;-69
2022/01/26 09:26:41;;;;;;;117.05;46.55;;;3.60;99.90;;;;;;4998408;28;20444;-69
2022/01/26 09:29:07;;;;;;;122.82;48.92;;;3.60;99.90;;;;;;4998385;28;20054;-71
2022/01/26 09:31:33;;;;;;;125.35;48.17;;;3.60;99.90;;;;;;4998372;28;20054;-71
2022/01/26 09:33:58;;;;;;;125.18;47.60;;;3.60;99.90;;;;;;4998457;28;20065;-71
2022/01/26 09:36:24;;;;;;;122.97;46.47;;;3.70;99.90;;;;;;4971942;28;20058;-70
2022/01/26 09:38:50;;;;;;;118.55;46.38;;;3.70;99.90;;;;;;4961742;28;20063;-70
2022/01/26 09:41:16;;;;;;;122.60;48.40;;;3.70;99.90;;;;;;4979186;28;20053;-71
2022/01/26 09:43:44;;;;;;;124.00;47.60;;;3.70;99.90;;;;;;4962050;28;20042;-71
2022/01/26 09:46:13;;;;;;;119.45;48.03;;;3.70;99.90;;;;;;4978730;28;20046;-70
2022/01/26 09:48:39;;;;;;;121.47;47.78;;;3.80;99.90;;;;;;4987439;28;20178;-72
2022/01/26 09:51:05;;;;;;;132.68;49.63;;;3.80;99.90;;;;;;4998227;28;20082;-71
2022/01/26 09:53:33;;;;;;;119.15;48.15;;;3.80;99.90;;;;;;4998097;28;20441;-70
2022/01/26 09:55:58;;;;;;;124.65;48.70;;;3.80;99.90;;;;;;4979872;28;20120;-71
2022/01/26 09:58:25;;;;;;;113.40;44.92;;;3.80;99.90;;;;;;4998106;28;20097;-71
2022/01/26 10:01:01;;;;;;;121.15;47.70;;;3.90;99.90;;;;;;4997790;28;20058;-71
2022/01/26 10:03:31;;;;;;;120.65;47.60;;;3.90;99.90;;;;;;4963552;28;20046;-70
2022/01/26 10:05:57;;;;;;;120.93;46.42;;;3.90;99.90;;;;;;4997341;28;20078;-71
2022/01/26 10:08:50;;;;;;;113.22;46.28;;;4.00;99.90;;;;;;4997714;28;20521;-69
2022/01/26 10:19:05;;;;;;;112.53;45.08;;;4.10;99.90;;;;;;4985447;28;20050;-69
2022/01/26 10:21:31;;;;;;;109.40;46.65;;;4.10;99.90;;;;;;4977867;28;20213;-69
2022/01/26 10:24:10;;;;;;;107.03;45.08;;;4.10;99.90;;;;;;4978130;28;20129;-71
2022/01/26 10:26:35;;;;;;;109.68;45.50;;;4.10;99.90;;;;;;4977736;28;20043;-69
2022/01/26 10:29:04;;;;;;;116.30;46.47;;;4.10;99.90;;;;;;4977059;28;20046;-70
2022/01/26 10:31:31;;;;;;;115.80;45.75;;;4.10;99.90;;;;;;4977784;28;20086;-71
2022/01/26 10:34:04;;;;;;;111.32;45.72;;;4.20;99.90;;;;;;4961204;28;20086;-71
2022/01/26 10:36:47;;;;;;;103.20;43.95;;;4.20;99.90;;;;;;4988727;28;20382;-73
2022/01/26 10:39:51;;;;;;;108.72;45.85;;;4.20;99.90;;;;;;4997185;28;20348;-70
2022/01/26 10:42:11;;;;;;;;;;;4.20;99.90;;;;;;4979164;28;20129;-71
2022/01/26 10:45:09;;;;;;;115.93;44.78;;;4.20;99.90;;;;;;4997016;28;20012;-72
2022/01/26 10:47:38;;;;;;;97.63;44.17;;;4.30;99.90;;;;;;4978380;28;20086;-68
2022/01/26 10:53:19;;;;;;;107.50;45.83;;;4.30;99.90;;;;;;4976689;28;20120;-70
2022/01/26 10:55:45;;;;;;;121.57;46.42;;;4.30;99.90;;;;;;4977643;28;20061;-70
2022/01/26 10:58:11;;;;;;;114.55;45.65;;;4.40;99.90;;;;;;4960099;28;20054;-70
2022/01/26 11:00:41;;;;;;;108.18;45.22;;;4.40;99.90;;;;;;4977190;28;20046;-70
2022/01/26 11:03:07;;;;;;;104.90;43.75;;;4.40;99.90;;;;;;4977086;28;20460;-71
2022/01/26 11:05:33;;;;;;;102.03;43.72;;;4.40;99.90;;;;;;4977423;28;20061;-70
2022/01/26 11:08:00;;;;;;;105.63;46.25;;;4.50;99.90;;;;;;4960068;28;20463;-70
2022/01/26 11:10:34;;;;;;;104.43;43.72;;;4.50;99.90;;;;;;4959775;28;20042;-70
2022/01/26 11:13:00;;;;;;;94.97;43.10;;;4.50;99.90;;;;;;4977387;28;20047;-70
2022/01/26 11:15:25;;;;;;;109.78;44.05;;;4.60;99.90;;;;;;4976843;28;20495;-70
2022/01/26 11:17:51;;;;;;;98.07;43.70;;;4.50;99.90;;;;;;4978415;28;20051;-71
2022/01/26 11:20:33;;;;;;;89.95;39.53;;;4.60;99.90;;;;;;4979492;28;20469;-70
2022/01/26 11:23:02;;;;;;;95.70;43.03;;;4.60;99.90;;;;;;4996205;28;20050;-70
2022/01/26 11:25:30;;;;;;;100.07;41.65;;;4.60;99.90;;;;;;4995977;28;20072;-70
2022/01/26 11:27:57;;;;;;;92.75;39.17;;;4.60;99.90;;;;;;4979150;28;20443;-71
2022/01/26 11:30:33;;;;;;;98.05;41.15;;;4.70;99.90;;;;;;4996565;28;20386;-70
2022/01/26 11:33:20;;;;;;;102.13;41.05;;;4.70;99.90;;;;;;4979249;28;20073;-71
2022/01/26 11:35:48;;;;;;;93.93;40.33;;;4.70;99.90;;;;;;4972410;28;20066;-70
2022/01/26 11:46:33;;;;;;;94.00;39.97;;;4.80;99.90;;;;;;4978280;28;20081;-71
2022/01/26 11:49:05;;;;;;;91.93;38.40;;;4.80;99.90;;;;;;4996156;28;20082;-70
2022/01/26 11:51:41;;;;;;;99.70;39.40;;;4.80;99.90;;;;;;4978789;28;20050;-72
2022/01/26 11:54:20;;;;;;;92.18;38.95;;;4.90;99.90;;;;;;4996019;28;20050;-70
2022/01/26 11:57:07;;;;;;;100.28;40.40;;;4.90;99.90;;;;;;4993650;28;20076;-71
2022/01/26 11:59:35;;;;;;;95.25;40.47;;;4.90;99.90;;;;;;4995630;28;20125;-73
2022/01/26 12:02:08;;;;;;;95.57;40.63;;;4.90;99.90;;;;;;4995971;28;20467;-69
2022/01/26 12:04:34;;;;;;;113.30;41.88;;;4.90;99.90;;;;;;4995680;28;20086;-69
2022/01/26 12:07:22;;;;;;;103.43;42.28;;;4.90;99.90;;;;;;4978567;28;20054;-70
2022/01/26 12:09:48;;;;;;;94.68;40.88;;;4.90;99.90;;;;;;4995650;28;20054;-71
2022/01/26 12:12:21;;;;;;;100.70;42.33;;;4.90;99.90;;;;;;4995743;28;20420;-69
2022/01/26 12:15:18;;;;;;;100.80;40.47;;;4.90;99.90;;;;;;4983689;28;20344;-71
2022/01/26 12:18:12;;;;;;;97.00;40.20;;;4.90;99.90;;;;;;4981087;28;20055;-70
2022/01/26 12:34:33;;;;;;;92.15;38.85;;;4.90;99.90;;;;;;4977888;28;20057;-70
2022/01/26 12:41:10;;;;;;;94.57;38.13;;;4.90;99.90;;;;;;4995277;28;20050;-70
2022/01/26 12:42:24;;;;;;;92.10;39.25;;;4.90;99.90;;;;;;4995322;28;20060;-71
2022/01/26 12:45:03;;;;;;;98.03;38.67;;;4.90;99.90;;;;;;4991290;28;20118;-71
2022/01/26 12:47:31;;;;;;;89.70;37.42;;;4.90;99.90;;;;;;4984916;28;20081;-70
2022/01/26 12:49:58;;;;;;;90.40;36.70;;;4.90;99.90;;;;;;4992278;28;20042;-70
2022/01/26 12:52:24;;;;;;;94.07;37.20;;;4.90;99.90;;;;;;4979900;28;20430;-71
2022/01/26 12:54:50;;;;;;;90.22;35.60;;;4.90;99.90;;;;;;4962344;28;20116;-70
2022/01/26 12:57:15;;;;;;;88.10;35.35;;;4.90;99.90;;;;;;4963179;28;20467;-70
2022/01/26 12:59:41;;;;;;;84.15;35.95;;;4.90;99.90;;;;;;4962526;28;20046;-72
2022/01/26 13:02:07;;;;;;;92.57;36.38;;;4.80;99.90;;;;;;4979698;28;20065;-69
2022/01/26 13:04:32;;;;;;;90.68;36.65;;;4.80;99.90;;;;;;4979404;28;20055;-69
2022/01/26 13:06:58;;;;;;;93.43;36.10;;;4.90;99.90;;;;;;4979338;28;20059;-69
2022/01/26 13:09:26;;;;;;;91.10;36.10;;;4.80;99.90;;;;;;4979051;28;20058;-71
2022/01/26 13:11:55;;;;;;;87.25;35.83;;;4.80;99.90;;;;;;4978949;28;20043;-69
2022/01/26 13:14:25;;;;;;;84.53;36.25;;;4.80;99.90;;;;;;4981532;28;20050;-70
2022/01/26 13:17:16;;;;;;;82.72;35.45;;;4.80;99.90;;;;;;4998809;28;20416;-70
2022/01/26 13:20:03;;;;;;;84.05;36.80;;;4.80;99.90;;;;;;4998376;28;20078;-70
2022/01/26 13:30:41;;;;;;;83.07;35.28;;;5.00;99.90;;;;;;4979361;28;20082;-69
2022/01/26 13:51:45;;;;;;;72.78;32.72;;;5.20;99.90;;;;;;4998090;28;20197;-70
2022/01/26 13:56:50;;;;;;;73.78;33.65;;;5.20;99.90;;;;;;4998178;28;20097;-69
2022/01/26 13:59:31;;;;;;;71.32;32.53;;;5.20;99.90;;;;;;4997842;28;20174;-71
2022/01/26 14:01:58;;;;;;;78.50;32.50;;;5.20;99.90;;;;;;4996803;28;20046;-69
2022/01/26 14:04:24;;;;;;;69.85;32.40;;;5.20;99.90;;;;;;4980203;28;20046;-72
2022/01/26 14:06:49;;;;;;;67.45;31.38;;;5.30;99.90;;;;;;4997970;28;20495;-70
2022/01/26 14:09:16;;;;;;;70.45;30.95;;;5.20;99.90;;;;;;4997768;28;20045;-70
2022/01/26 14:11:44;;;;;;;69.80;32.10;;;5.30;99.90;;;;;;4971425;28;20058;-72
2022/01/26 14:14:13;;;;;;;72.40;32.95;;;5.30;99.90;;;;;;4978319;28;20122;-68
2022/01/26 14:16:44;;;;;;;77.25;32.22;;;5.30;99.90;;;;;;4960658;28;20094;-70
2022/01/26 14:24:24;;;;;;;72.80;30.95;;;5.40;99.90;;;;;;4977741;28;20427;-69
2022/01/26 14:26:54;;;;;;;69.68;30.80;;;5.40;99.90;;;;;;4978208;28;20348;-72
2022/01/26 14:32:13;;;;;;;68.05;30.70;;;5.50;99.90;;;;;;4977921;28;20054;-70
2022/01/26 15:08:43;;;;;;;75.25;31.98;;;5.50;99.90;;;;;;4996639;28;20058;-70
2022/01/26 15:33:27;;;;;;;82.90;34.28;;;5.50;99.90;;;;;;4996307;28;20042;-71
2022/01/26 15:43:47;;;;;;;79.85;32.63;;;5.50;99.90;;;;;;4995868;28;20376;-68
2022/01/26 16:07:26;;;;;;;70.28;29.50;;;5.40;99.90;;;;;;4976659;28;20134;-72
2022/01/26 16:12:43;;;;;;;67.63;30.35;;;5.80;99.90;;;;;;4994402;28;20053;-71
2022/01/26 16:19:16;;;;;;;73.68;31.38;;;5.40;99.90;;;;;;4994128;28;19929;-73
2022/01/26 17:02:31;;;;;;;74.32;32.97;;;5.40;99.90;;;;;;4994648;28;20054;-70
2022/01/26 17:11:11;;;;;;;86.78;34.47;;;5.40;99.90;;;;;;4977806;28;20474;-69
2022/01/26 17:43:27;;;;;;;76.25;32.55;;;5.30;99.90;;;;;;4997655;28;20512;-69
2022/01/26 18:15:30;;;;;;;71.03;32.67;;;5.30;99.90;;;;;;4995782;28;20058;-71
2022/01/26 18:18:02;;;;;;;65.55;32.17;;;5.30;99.90;;;;;;4979692;28;20058;-69
2022/01/26 18:40:26;;;;;;;63.08;29.98;;;5.40;99.90;;;;;;4995468;28;20093;-68
2022/01/26 18:50:47;;;;;;;56.25;27.05;;;5.50;99.90;;;;;;4971414;28;20475;-70
2022/01/26 18:53:13;;;;;;;55.78;26.92;;;5.50;99.90;;;;;;4972806;28;20080;-69
2022/01/26 18:55:39;;;;;;;51.53;26.38;;;5.60;99.90;;;;;;4995688;28;20581;-70
2022/01/26 18:58:04;;;;;;;62.58;27.38;;;5.60;99.90;;;;;;4995680;28;20039;-70
2022/01/26 19:00:30;;;;;;;58.85;26.08;;;5.60;99.90;;;;;;4979106;28;20383;-69
2022/01/26 19:02:59;;;;;;;57.63;26.02;;;5.60;99.90;;;;;;4996187;28;20046;-69
2022/01/26 19:05:25;;;;;;;53.78;25.08;;;5.60;99.90;;;;;;4966207;28;20134;-71
2022/01/26 19:07:53;;;;;;;49.13;23.90;;;5.80;99.90;;;;;;4976703;28;20055;-68
2022/01/26 19:10:19;;;;;;;54.70;24.52;;;5.70;99.90;;;;;;4976744;28;20124;-69
2022/01/26 19:12:46;;;;;;;52.63;25.08;;;5.70;99.90;;;;;;4976398;28;20380;-69